createdAt,value
2023-04-17T00:00:31.946Z,78.08
2023-04-17T00:03:17.812Z,78.56
2023-04-17T00:05:46.375Z,78.66
2023-04-17T00:08:14.761Z,79.37
2023-04-17T00:10:44.369Z,79.86
2023-04-17T00:13:15.067Z,79.48
2023-04-17T00:15:44.192Z,79.76
2023-04-17T00:18:12.097Z,80.39
2023-04-17T00:20:40.044Z,80.70
2023-04-17T00:23:07.908Z,81.13
2023-04-17T00:25:35.911Z,81.75
2023-04-17T00:28:03.830Z,81.88
2023-04-17T00:30:31.771Z,82.01
2023-04-17T00:32:59.692Z,82.72
2023-04-17T00:35:27.618Z,83.20
2023-04-17T00:37:55.554Z,83.50
2023-04-17T00:40:23.746Z,83.79
2023-04-17T00:42:53.364Z,84.51
2023-04-17T00:45:21.646Z,84.89
2023-04-17T00:47:50.777Z,85.57
2023-04-17T00:50:19.089Z,86.26
2023-04-17T00:52:47.681Z,87.07
2023-04-17T00:55:16.043Z,87.01
2023-04-17T00:57:49.505Z,86.69
2023-04-17T01:00:20.836Z,86.41
2023-04-17T01:02:49.013Z,86.55
2023-04-17T01:05:17.187Z,86.53
2023-04-17T01:07:45.865Z,86.89
2023-04-17T01:10:14.077Z,87.19
2023-04-17T01:12:46.600Z,88.00
2023-04-17T01:15:15.523Z,88.18
2023-04-17T01:17:43.488Z,88.03
2023-04-17T01:20:12.134Z,88.50
2023-04-17T01:22:40.205Z,88.75
2023-04-17T01:25:09.007Z,88.68
2023-04-17T01:27:38.653Z,89.08
2023-04-17T01:30:07.564Z,89.73
2023-04-17T01:32:42.464Z,90.17
2023-04-17T01:35:11.509Z,90.53
2023-04-17T01:37:39.457Z,90.42
2023-04-17T01:40:08.181Z,90.22
2023-04-17T01:42:36.200Z,90.22
2023-04-17T01:45:05.398Z,90.41
2023-04-17T01:47:33.394Z,89.92
2023-04-17T01:50:01.470Z,90.07
2023-04-17T01:52:29.603Z,89.93
2023-04-17T01:54:57.674Z,89.79
2023-04-17T01:57:25.802Z,89.62
2023-04-17T01:59:53.711Z,89.62
2023-04-17T02:02:21.735Z,89.16
2023-04-17T02:04:51.092Z,88.96
2023-04-17T02:07:19.185Z,88.69
2023-04-17T02:09:47.124Z,88.55
2023-04-17T02:12:15.074Z,88.39
2023-04-17T02:14:44.118Z,88.02
2023-04-17T02:17:12.162Z,88.05
2023-04-17T02:19:40.199Z,87.58
2023-04-17T02:22:12.769Z,87.21
2023-04-17T02:24:40.653Z,87.13
2023-04-17T02:27:08.661Z,86.95
2023-04-17T02:29:36.594Z,86.63
2023-04-17T02:32:04.613Z,86.62
2023-04-17T02:34:32.696Z,86.57
2023-04-17T02:37:00.783Z,86.62
2023-04-17T02:39:28.981Z,86.45
2023-04-17T02:41:57.593Z,86.90
2023-04-17T02:44:25.635Z,87.14
2023-04-17T02:46:53.698Z,87.17
2023-04-17T02:49:22.035Z,87.27
2023-04-17T02:51:51.640Z,87.64
2023-04-17T02:54:19.583Z,87.96
2023-04-17T02:56:47.607Z,88.50
2023-04-17T02:59:15.858Z,88.57
2023-04-17T03:01:45.709Z,89.38
2023-04-17T03:04:14.727Z,89.59
2023-04-17T03:06:43.102Z,89.62
2023-04-17T03:09:12.566Z,89.53
2023-04-17T03:11:41.028Z,89.52
2023-04-17T03:14:09.070Z,90.13
2023-04-17T03:16:37.264Z,90.57
2023-04-17T03:19:05.549Z,90.67
2023-04-17T03:21:33.603Z,90.70
2023-04-17T03:24:01.604Z,90.88
2023-04-17T03:26:29.721Z,91.08
2023-04-17T03:28:59.558Z,91.01
2023-04-17T03:31:28.014Z,91.28
2023-04-17T03:33:56.140Z,91.62
2023-04-17T03:36:24.788Z,91.80
2023-04-17T03:38:53.580Z,91.75
2023-04-17T03:41:22.813Z,91.77
2023-04-17T03:43:50.852Z,91.89
2023-04-17T03:46:19.345Z,91.57
2023-04-17T03:48:49.944Z,91.67
2023-04-17T03:51:20.657Z,91.80
2023-04-17T03:53:58.678Z,91.74
2023-04-17T03:56:27.227Z,91.57
2023-04-17T03:58:55.479Z,91.48
2023-04-17T04:01:28.580Z,91.44
2023-04-17T04:04:15.269Z,91.64
2023-04-17T04:06:53.473Z,91.62
2023-04-17T04:09:32.209Z,91.71
2023-04-17T04:12:00.528Z,91.62
2023-04-17T04:14:29.217Z,91.85
2023-04-17T04:16:57.236Z,91.79
2023-04-17T04:19:26.522Z,91.85
2023-04-17T04:21:54.795Z,91.55
2023-04-17T04:24:25.744Z,91.32
2023-04-17T04:26:53.879Z,91.51
2023-04-17T04:29:25.835Z,91.23
2023-04-17T04:32:04.473Z,90.84
2023-04-17T04:34:38.380Z,90.67
2023-04-17T04:37:06.465Z,90.60
2023-04-17T04:39:41.929Z,90.42
2023-04-17T04:42:11.939Z,90.35
2023-04-17T04:44:53.181Z,90.31
2023-04-17T04:47:22.950Z,90.13
2023-04-17T04:49:51.289Z,89.77
2023-04-17T04:52:21.490Z,89.54
2023-04-17T04:54:50.035Z,89.46
2023-04-17T04:57:18.980Z,89.42
2023-04-17T04:59:48.033Z,89.24
2023-04-17T05:02:38.970Z,89.12
2023-04-17T05:05:12.657Z,89.07
2023-04-17T05:07:40.967Z,88.77
2023-04-17T05:10:12.371Z,88.66
2023-04-17T05:12:44.577Z,88.62
2023-04-17T05:15:15.484Z,88.30
2023-04-17T05:17:44.969Z,87.99
2023-04-17T05:20:15.448Z,87.88
2023-04-17T05:22:50.405Z,87.94
2023-04-17T05:25:19.844Z,87.98
2023-04-17T05:27:48.706Z,87.88
2023-04-17T05:30:19.336Z,87.96
2023-04-17T05:32:51.954Z,88.11
2023-04-17T05:35:37.439Z,88.20
2023-04-17T05:38:08.097Z,88.99
2023-04-17T05:40:42.859Z,89.74
2023-04-17T05:43:12.719Z,89.95
2023-04-17T05:45:44.298Z,90.88
2023-04-17T05:48:12.423Z,92.00
2023-04-17T05:50:40.570Z,92.66
2023-04-17T05:53:09.272Z,93.11
2023-04-17T05:55:41.759Z,94.36
2023-04-17T05:58:22.997Z,95.04
2023-04-17T06:00:52.445Z,95.82
2023-04-17T06:03:21.298Z,96.00
2023-04-17T06:05:52.189Z,96.83
2023-04-17T06:08:20.360Z,97.07
2023-04-17T06:10:51.108Z,97.40
2023-04-17T06:13:19.307Z,97.40
2023-04-17T06:15:50.479Z,97.18
2023-04-17T06:18:18.650Z,96.84
2023-04-17T06:20:47.235Z,96.52
2023-04-17T06:23:15.453Z,96.40
2023-04-17T06:25:43.535Z,96.44
2023-04-17T06:28:11.561Z,96.09
2023-04-17T06:30:39.880Z,95.64
2023-04-17T06:33:08.690Z,94.91
2023-04-17T06:35:37.884Z,94.58
2023-04-17T06:38:15.729Z,93.24
2023-04-17T06:40:44.957Z,92.32
2023-04-17T06:43:13.207Z,91.46
2023-04-17T06:46:26.488Z,89.95
2023-04-17T06:49:02.905Z,86.70
2023-04-17T06:51:33.786Z,84.59
2023-04-17T06:54:10.178Z,82.29
2023-04-17T06:56:38.499Z,80.49
2023-04-17T06:59:14.075Z,78.07
2023-04-17T07:01:56.960Z,77.07
2023-04-17T07:04:55.444Z,76.08
2023-04-17T07:07:36.574Z,75.43
2023-04-17T07:10:28.737Z,75.46
2023-04-17T07:13:37.478Z,76.11
2023-04-17T07:16:30.919Z,74.72
2023-04-17T07:19:41.442Z,73.77
2023-04-17T07:22:53.061Z,73.18
2023-04-17T07:25:30.221Z,73.39
2023-04-17T07:28:04.509Z,70.48
2023-04-17T07:30:34.034Z,68.31
2023-04-17T07:33:11.662Z,67.25
2023-04-17T07:36:09.678Z,65.85
2023-04-17T07:38:42.566Z,64.32
2023-04-17T07:41:17.175Z,64.76
2023-04-17T07:43:51.928Z,63.88
2023-04-17T07:46:40.560Z,63.33
2023-04-17T07:49:46.633Z,63.70
2023-04-17T07:52:15.764Z,65.15
2023-04-17T07:54:46.423Z,65.63
2023-04-17T07:57:15.677Z,65.35
2023-04-17T07:59:44.457Z,65.21
2023-04-17T08:02:16.898Z,65.77
2023-04-17T08:04:45.363Z,65.32
2023-04-17T08:07:14.602Z,65.98
2023-04-17T08:09:44.463Z,65.76
2023-04-17T08:12:12.515Z,65.72
2023-04-17T08:14:40.900Z,64.74
2023-04-17T08:17:09.046Z,64.71
2023-04-17T08:19:37.205Z,64.64
2023-04-17T08:22:06.337Z,62.50
2023-04-17T08:24:35.909Z,61.11
2023-04-17T08:27:05.187Z,60.83
2023-04-17T08:29:33.435Z,59.66
2023-04-17T08:32:13.927Z,59.94
2023-04-17T08:34:48.068Z,60.33
2023-04-17T08:37:16.104Z,61.22
2023-04-17T08:39:44.220Z,60.13
2023-04-17T08:42:16.724Z,59.19
2023-04-17T08:44:46.457Z,58.33
2023-04-17T08:47:18.490Z,58.89
2023-04-17T08:49:47.333Z,58.67
2023-04-17T08:52:21.841Z,58.85
2023-04-17T08:54:54.952Z,57.39
2023-04-17T08:57:23.385Z,57.79
2023-04-17T09:00:15.984Z,58.64
2023-04-17T09:02:57.694Z,58.93
2023-04-17T09:05:30.497Z,57.67
2023-04-17T09:08:24.328Z,56.66
2023-04-17T09:10:57.830Z,56.69
2023-04-17T09:13:31.215Z,55.54
2023-04-17T09:16:19.691Z,55.20
2023-04-17T09:18:48.116Z,55.91
2023-04-17T09:21:19.194Z,56.69
2023-04-17T09:23:58.704Z,55.30
2023-04-17T09:26:31.970Z,55.09
2023-04-17T09:29:14.778Z,53.86
2023-04-17T09:31:43.891Z,52.13
2023-04-17T09:34:57.099Z,52.64
2023-04-17T09:37:56.007Z,51.56
2023-04-17T09:40:46.388Z,51.21
2023-04-17T09:43:17.270Z,51.41
2023-04-17T09:45:47.083Z,52.00
2023-04-17T09:48:15.867Z,52.39
2023-04-17T09:50:44.588Z,52.76
2023-04-17T09:53:15.958Z,54.11
2023-04-17T09:55:53.323Z,55.24
2023-04-17T09:58:23.812Z,55.95
2023-04-17T10:00:52.592Z,55.77
2023-04-17T10:03:23.796Z,55.22
2023-04-17T10:05:52.179Z,55.62
2023-04-17T10:08:20.262Z,54.03
2023-04-17T10:10:52.474Z,53.11
2023-04-17T10:13:33.358Z,52.81
2023-04-17T10:16:06.092Z,52.72
2023-04-17T10:18:34.593Z,52.74
2023-04-17T10:21:22.067Z,52.84
2023-04-17T10:23:50.403Z,53.43
2023-04-17T10:26:30.687Z,54.44
2023-04-17T10:29:00.900Z,53.92
2023-04-17T10:32:09.073Z,52.69
2023-04-17T10:34:44.003Z,52.38
2023-04-17T10:38:41.124Z,51.08
2023-04-17T10:40:53.028Z,50.73
2023-04-17T10:43:22.756Z,50.94
2023-04-17T10:45:54.050Z,51.76
2023-04-17T10:48:31.389Z,51.70
2023-04-17T10:51:22.282Z,50.26
2023-04-17T10:53:52.283Z,49.91
2023-04-17T10:57:15.333Z,49.91
2023-04-17T10:59:43.893Z,49.75
2023-04-17T11:02:12.028Z,50.08
2023-04-17T11:04:40.558Z,49.69
2023-04-17T11:07:08.563Z,49.34
2023-04-17T11:09:36.978Z,48.56
2023-04-17T11:12:07.769Z,47.32
2023-04-17T11:14:40.685Z,47.31
2023-04-17T11:17:09.349Z,47.50
2023-04-17T11:19:37.390Z,47.01
2023-04-17T11:22:05.576Z,46.81
2023-04-17T11:24:33.678Z,45.18
2023-04-17T11:27:03.653Z,45.68
2023-04-17T11:29:32.030Z,45.40
2023-04-17T11:32:01.350Z,45.43
2023-04-17T11:34:30.417Z,45.51
2023-04-17T11:37:01.145Z,45.95
2023-04-17T11:39:33.761Z,46.10
2023-04-17T11:42:05.293Z,46.58
2023-04-17T11:44:33.484Z,47.16
2023-04-17T11:47:02.557Z,47.53
2023-04-17T11:49:32.885Z,47.97
2023-04-17T11:52:04.446Z,48.50
2023-04-17T11:54:38.206Z,48.74
2023-04-17T11:57:37.386Z,48.91
2023-04-17T12:00:15.687Z,48.99
2023-04-17T12:02:44.133Z,48.72
2023-04-17T12:05:14.588Z,48.15
2023-04-17T12:07:44.139Z,47.43
2023-04-17T12:10:17.402Z,46.71
2023-04-17T12:12:45.706Z,46.96
2023-04-17T12:15:14.145Z,47.25
2023-04-17T12:17:46.214Z,47.91
2023-04-17T12:20:14.768Z,48.06
2023-04-17T12:22:42.915Z,48.68
2023-04-17T12:25:11.183Z,48.90
2023-04-17T12:27:39.585Z,49.26
2023-04-17T12:30:09.699Z,49.17
2023-04-17T12:32:40.366Z,49.14
2023-04-17T12:35:08.892Z,49.12
2023-04-17T12:37:39.602Z,49.33
2023-04-17T12:40:09.052Z,48.39
2023-04-17T12:42:48.649Z,48.24
2023-04-17T12:45:24.388Z,48.33
2023-04-17T12:47:52.549Z,48.39
2023-04-17T12:50:22.964Z,48.68
2023-04-17T12:52:51.212Z,50.03
2023-04-17T12:55:41.176Z,52.16
2023-04-17T12:58:13.594Z,54.62
2023-04-17T13:00:46.908Z,56.63
2023-04-17T13:03:21.521Z,58.54
2023-04-17T13:06:18.629Z,59.58
2023-04-17T13:09:17.002Z,59.89
2023-04-17T13:12:18.989Z,60.74
2023-04-17T13:14:49.698Z,62.92
2023-04-17T13:17:17.967Z,63.81
2023-04-17T13:19:46.219Z,64.79
2023-04-17T13:22:15.761Z,66.93
2023-04-17T13:24:47.140Z,68.96
2023-04-17T13:27:15.488Z,70.99
2023-04-17T13:29:43.661Z,73.78
2023-04-17T13:32:26.220Z,74.69
2023-04-17T13:35:03.515Z,75.48
2023-04-17T13:37:48.113Z,77.04
2023-04-17T13:40:19.662Z,77.39
2023-04-17T13:42:51.249Z,75.61
2023-04-17T13:45:19.410Z,73.25
2023-04-17T13:47:47.760Z,72.27
2023-04-17T13:50:15.979Z,72.12
2023-04-17T13:52:44.218Z,72.77
2023-04-17T13:55:14.860Z,74.22
2023-04-17T13:57:52.136Z,75.70
2023-04-17T14:00:23.266Z,77.61
2023-04-17T14:02:54.710Z,77.57
2023-04-17T14:05:23.256Z,78.80
2023-04-17T14:07:51.833Z,77.73
2023-04-17T14:10:20.193Z,76.95
2023-04-17T14:12:48.717Z,77.81
2023-04-17T14:15:17.070Z,77.96
2023-04-17T14:17:45.408Z,77.96
2023-04-17T14:20:15.271Z,78.03
2023-04-17T14:22:43.641Z,78.22
2023-04-17T14:25:11.830Z,75.94
2023-04-17T14:27:40.170Z,75.47
2023-04-17T14:30:09.068Z,75.13
2023-04-17T14:32:44.259Z,74.23
2023-04-17T14:35:13.472Z,73.95
2023-04-17T14:37:42.373Z,75.22
2023-04-17T14:40:11.052Z,75.47
2023-04-17T14:42:53.134Z,74.93
2023-04-17T14:45:22.811Z,73.14
2023-04-17T14:47:51.289Z,70.68
2023-04-17T14:50:19.676Z,68.62
2023-04-17T14:52:48.216Z,69.33
2023-04-17T14:55:16.719Z,70.32
2023-04-17T14:57:45.077Z,70.77
2023-04-17T15:00:14.002Z,70.88
2023-04-17T15:02:42.319Z,71.14
2023-04-17T15:05:11.138Z,70.18
2023-04-17T15:07:39.405Z,69.49
2023-04-17T15:10:08.070Z,69.18
2023-04-17T15:12:36.825Z,69.29
2023-04-17T15:15:06.593Z,69.46
2023-04-17T15:17:37.394Z,69.49
2023-04-17T15:20:06.406Z,68.91
2023-04-17T15:22:40.798Z,68.85
2023-04-17T15:25:09.215Z,69.73
2023-04-17T15:27:37.552Z,70.12
2023-04-17T15:30:10.971Z,70.28
2023-04-17T15:32:39.357Z,70.58
2023-04-17T15:35:08.378Z,71.50
2023-04-17T15:37:43.818Z,72.07
2023-04-17T15:40:12.088Z,73.29
2023-04-17T15:42:40.321Z,74.33
2023-04-17T15:45:13.090Z,74.98
2023-04-17T15:47:46.899Z,76.13
2023-04-17T15:50:15.147Z,77.24
2023-04-17T15:52:43.411Z,78.40
2023-04-17T15:55:11.561Z,79.48
2023-04-17T15:57:47.147Z,80.87
2023-04-17T16:00:17.078Z,81.75
2023-04-17T16:02:48.296Z,82.77
2023-04-17T16:05:17.568Z,84.47
2023-04-17T16:07:47.906Z,87.13
2023-04-17T16:10:16.703Z,88.97
2023-04-17T16:12:46.532Z,89.82
2023-04-17T16:15:17.135Z,90.02
2023-04-17T16:17:45.786Z,90.29
2023-04-17T16:20:14.426Z,90.61
2023-04-17T16:22:42.931Z,91.83
2023-04-17T16:25:14.171Z,93.28
2023-04-17T16:27:45.275Z,94.75
2023-04-17T16:30:13.604Z,96.80
2023-04-17T16:32:42.032Z,96.77
2023-04-17T16:35:10.675Z,97.93
2023-04-17T16:37:38.617Z,99.09
2023-04-17T16:40:07.490Z,99.77
2023-04-17T16:42:36.604Z,100.00
2023-04-17T16:45:06.797Z,100.00
2023-04-17T16:47:35.043Z,100.00
2023-04-17T16:50:03.669Z,100.00
2023-04-17T16:52:31.654Z,100.00
2023-04-17T16:54:59.771Z,100.00
2023-04-17T16:57:27.770Z,100.00
2023-04-17T16:59:55.756Z,100.00
2023-04-17T17:02:23.826Z,100.00
2023-04-17T17:04:52.018Z,100.00
2023-04-17T17:07:20.625Z,100.00
2023-04-17T17:09:48.875Z,100.00
2023-04-17T17:12:16.885Z,100.00
2023-04-17T17:14:47.588Z,100.00
2023-04-17T17:17:15.838Z,100.00
2023-04-17T17:19:43.936Z,100.00
2023-04-17T17:22:11.986Z,100.00
2023-04-17T17:24:40.019Z,100.00
2023-04-17T17:27:08.088Z,100.00
2023-04-17T17:29:36.112Z,100.00
2023-04-17T17:32:04.474Z,100.00
2023-04-17T17:34:32.658Z,100.00
2023-04-17T17:37:00.760Z,100.00
2023-04-17T17:39:31.003Z,100.00
2023-04-17T17:41:59.063Z,100.00
2023-04-17T17:44:27.020Z,100.00
2023-04-17T17:46:54.919Z,100.00
2023-04-17T17:49:22.905Z,100.00
2023-04-17T17:51:50.977Z,100.00
2023-04-17T17:54:19.129Z,100.00
2023-04-17T17:56:47.404Z,100.00
2023-04-17T17:59:15.542Z,100.00
2023-04-17T18:01:43.665Z,100.00
2023-04-17T18:04:12.408Z,100.00
2023-04-17T18:06:41.084Z,100.00
2023-04-17T18:09:09.096Z,100.00
2023-04-17T18:11:37.748Z,100.00
2023-04-17T18:14:06.774Z,100.00
2023-04-17T18:16:36.261Z,100.00
2023-04-17T18:19:05.237Z,100.00
2023-04-17T18:21:34.125Z,100.00
2023-04-17T18:24:02.160Z,100.00
2023-04-17T18:26:30.179Z,100.00
2023-04-17T18:29:00.876Z,100.00
2023-04-17T18:31:29.128Z,100.00
2023-04-17T18:34:02.385Z,100.00
2023-04-17T18:36:31.292Z,100.00
2023-04-17T18:38:59.412Z,100.00
2023-04-17T18:41:27.503Z,100.00
2023-04-17T18:43:55.662Z,100.00
2023-04-17T18:46:24.458Z,100.00
2023-04-17T18:48:52.682Z,100.00
2023-04-17T18:51:21.443Z,100.00
2023-04-17T18:53:50.399Z,100.00
2023-04-17T18:56:19.911Z,100.00
2023-04-17T18:58:48.033Z,100.00
2023-04-17T19:01:16.193Z,100.00
2023-04-17T19:03:44.878Z,100.00
2023-04-17T19:06:12.933Z,100.00
2023-04-17T19:08:40.814Z,100.00
2023-04-17T19:11:08.818Z,100.00
2023-04-17T19:13:36.875Z,100.00
2023-04-17T19:16:05.038Z,100.00
2023-04-17T19:18:33.365Z,100.00
2023-04-17T19:21:02.109Z,100.00
2023-04-17T19:23:32.476Z,100.00
2023-04-17T19:26:00.441Z,100.00
2023-04-17T19:28:28.687Z,100.00
2023-04-17T19:31:00.204Z,100.00
2023-04-17T19:33:28.498Z,100.00
2023-04-17T19:35:58.360Z,100.00
2023-04-17T19:38:28.081Z,100.00
2023-04-17T19:41:22.676Z,100.00
2023-04-17T19:44:16.803Z,100.00
2023-04-17T19:46:48.266Z,100.00
2023-04-17T19:49:16.190Z,100.00
2023-04-17T19:51:46.604Z,100.00
2023-04-17T19:54:15.969Z,100.00
2023-04-17T19:56:44.075Z,100.00
2023-04-17T19:59:16.414Z,100.00
2023-04-17T20:01:44.546Z,100.00
2023-04-17T20:04:14.254Z,100.00
2023-04-17T20:06:42.567Z,100.00
2023-04-17T20:09:13.289Z,100.00
2023-04-17T20:11:43.092Z,100.00
2023-04-17T20:14:14.690Z,100.00
2023-04-17T20:16:45.313Z,100.00
2023-04-17T20:19:13.441Z,100.00
2023-04-17T20:21:42.304Z,100.00
2023-04-17T20:24:10.773Z,100.00
2023-04-17T20:26:38.727Z,100.00
2023-04-17T20:29:06.752Z,100.00
2023-04-17T20:31:36.509Z,100.00
2023-04-17T20:34:04.778Z,100.00
2023-04-17T20:36:32.911Z,100.00
2023-04-17T20:39:00.971Z,100.00
2023-04-17T20:41:39.361Z,100.00
2023-04-17T20:44:11.655Z,100.00
2023-04-17T20:46:40.000Z,100.00
2023-04-17T20:49:08.005Z,100.00
2023-04-17T20:51:36.179Z,100.00
2023-04-17T20:54:04.252Z,100.00
2023-04-17T20:56:32.210Z,100.00
2023-04-17T20:59:01.826Z,100.00
2023-04-17T21:01:30.025Z,100.00
2023-04-17T21:03:58.373Z,100.00
2023-04-17T21:06:27.003Z,100.00
2023-04-17T21:08:55.372Z,100.00
2023-04-17T21:11:23.446Z,100.00
2023-04-17T21:13:51.479Z,100.00
2023-04-17T21:16:19.611Z,100.00
2023-04-17T21:18:49.874Z,100.00
2023-04-17T21:21:21.075Z,100.00
2023-04-17T21:23:50.732Z,100.00
2023-04-17T21:26:19.019Z,100.00
2023-04-17T21:28:49.156Z,100.00
2023-04-17T21:31:20.519Z,100.00
2023-04-17T21:33:59.239Z,100.00
2023-04-17T21:36:30.050Z,100.00
2023-04-17T21:38:58.196Z,100.00
2023-04-17T21:41:30.175Z,100.00
2023-04-17T21:44:02.657Z,100.00
2023-04-17T21:46:32.821Z,100.00
2023-04-17T21:49:00.917Z,100.00
2023-04-17T21:51:34.339Z,100.00
2023-04-17T21:54:02.565Z,100.00
2023-04-17T21:56:31.003Z,100.00
2023-04-17T21:58:59.680Z,100.00
2023-04-17T22:01:28.082Z,100.00
2023-04-17T22:03:57.736Z,100.00
2023-04-17T22:06:28.179Z,100.00
2023-04-17T22:09:03.673Z,100.00
2023-04-17T22:11:33.154Z,100.00
2023-04-17T22:14:01.254Z,100.00
2023-04-17T22:16:29.412Z,100.00
2023-04-17T22:18:57.448Z,100.00
2023-04-17T22:21:27.066Z,100.00
2023-04-17T22:23:54.952Z,100.00
2023-04-17T22:26:23.047Z,100.00
2023-04-17T22:28:51.044Z,100.00
2023-04-17T22:31:19.350Z,100.00
2023-04-17T22:33:47.727Z,100.00
2023-04-17T22:36:29.492Z,100.00
2023-04-17T22:39:01.169Z,100.00
2023-04-17T22:41:30.633Z,100.00
2023-04-17T22:43:58.744Z,100.00
2023-04-17T22:46:31.711Z,100.00
2023-04-17T22:49:01.686Z,100.00
2023-04-17T22:51:29.742Z,100.00
2023-04-17T22:54:21.531Z,100.00
2023-04-17T22:56:47.980Z,100.00
2023-04-17T22:59:18.852Z,100.00
2023-04-17T23:01:49.766Z,100.00
2023-04-17T23:04:23.082Z,100.00
2023-04-17T23:06:51.031Z,100.00
2023-04-17T23:09:19.089Z,100.00
2023-04-17T23:11:47.158Z,100.00
2023-04-17T23:14:15.386Z,100.00
2023-04-17T23:16:44.921Z,100.00
2023-04-17T23:19:16.712Z,100.00
2023-04-17T23:21:45.813Z,100.00
2023-04-17T23:24:14.117Z,100.00
2023-04-17T23:26:45.325Z,100.00
2023-04-17T23:29:17.765Z,100.00
2023-04-17T23:31:45.787Z,100.00
2023-04-17T23:34:14.237Z,100.00
2023-04-17T23:36:43.853Z,100.00
2023-04-17T23:39:11.918Z,100.00
2023-04-17T23:41:42.886Z,100.00
2023-04-17T23:44:11.130Z,100.00
2023-04-17T23:46:39.675Z,100.00
2023-04-17T23:49:08.030Z,100.00
2023-04-17T23:51:36.139Z,100.00
2023-04-17T23:54:04.363Z,100.00
2023-04-17T23:56:35.096Z,100.00
2023-04-17T23:59:05.904Z,100.00
